createdAt,value
2018-07-01T00:06:17.194Z,65.8
2018-07-01T00:16:32.603Z,66.6
2018-07-01T00:26:47.763Z,67.2
2018-07-01T00:37:01.604Z,67.8
2018-07-01T00:47:16.743Z,68.4
2018-07-01T00:57:31.552Z,69.3
2018-07-01T01:07:46.378Z,70.5
2018-07-01T01:18:00.471Z,70.8
2018-07-01T01:28:15.568Z,70.6
2018-07-01T01:38:30.332Z,70.3
2018-07-01T01:48:44.615Z,71.5
2018-07-01T01:58:59.459Z,73
2018-07-01T02:09:15.193Z,73.2
2018-07-01T02:19:30.169Z,74.5
2018-07-01T02:29:44.802Z,75.4
2018-07-01T02:39:59.507Z,75.4
2018-07-01T02:50:14.225Z,75.2
2018-07-01T03:00:29.802Z,76.5
2018-07-01T03:10:43.520Z,77.2
2018-07-01T03:20:57.804Z,76.4
2018-07-01T03:31:12.562Z,76.4
2018-07-01T03:41:27.940Z,76.3
2018-07-01T03:51:42.630Z,76.6
2018-07-01T04:01:57.749Z,77.2
2018-07-01T04:12:11.820Z,77
2018-07-01T04:22:25.704Z,77.8
2018-07-01T04:32:40.887Z,78
2018-07-01T04:42:56.780Z,78
2018-07-01T04:53:11.398Z,78.4
2018-07-01T05:03:26.510Z,77.4
2018-07-01T05:13:40.436Z,77.8
2018-07-01T05:23:55.257Z,76.7
2018-07-01T05:34:09.081Z,75.5
2018-07-01T05:44:22.852Z,75.5
2018-07-01T05:54:37.528Z,74.2
2018-07-01T06:04:52.730Z,73
2018-07-01T06:15:08.450Z,71.2
2018-07-01T06:25:23.726Z,68
2018-07-01T06:35:39.428Z,64.1
2018-07-01T06:45:54.319Z,61.5
2018-07-01T06:56:08.939Z,59.6
2018-07-01T07:06:24.449Z,58.5
2018-07-01T07:16:39.414Z,55.9
2018-07-01T07:26:53.443Z,54.3
2018-07-01T07:37:07.351Z,53.2
2018-07-01T07:47:22.498Z,52
2018-07-01T07:57:37.499Z,51
2018-07-01T08:07:52.610Z,50.4
2018-07-01T08:18:06.726Z,50.1
2018-07-01T08:28:21.367Z,49
2018-07-01T08:38:36.343Z,48.6
2018-07-01T08:48:52.218Z,47.7
2018-07-01T08:59:07.640Z,47.6
2018-07-01T09:09:21.740Z,46.7
2018-07-01T09:19:36.062Z,45.8
2018-07-01T09:29:50.150Z,44.2
2018-07-01T09:40:05.175Z,44.3
2018-07-01T09:50:20.465Z,43.2
2018-07-01T10:00:36.371Z,43
2018-07-01T10:10:50.588Z,42.2
2018-07-01T10:21:06.366Z,42.1
2018-07-01T10:31:21.941Z,41.7
2018-07-01T10:41:37.367Z,41.9
2018-07-01T10:51:52.563Z,41.9
2018-07-01T11:02:07.194Z,41.2
2018-07-01T11:12:22.554Z,41.2
2018-07-01T11:22:37.217Z,41.3
2018-07-01T11:32:51.816Z,40.9
2018-07-01T11:43:07.607Z,40.5
2018-07-01T11:53:21.833Z,40
2018-07-01T12:03:36.937Z,39.8
2018-07-01T12:13:51.434Z,38.9
2018-07-01T12:24:05.879Z,39.2
2018-07-01T12:34:20.848Z,38.5
2018-07-01T12:44:36.314Z,39.1
2018-07-01T12:54:51.824Z,38.7
2018-07-01T13:05:06.769Z,38
2018-07-01T13:15:22.461Z,38.4
2018-07-01T13:25:36.812Z,38.1
2018-07-01T13:35:52.136Z,38.5
2018-07-01T13:46:07.733Z,38.8
2018-07-01T13:56:22.520Z,38.3
2018-07-01T14:06:38.240Z,38.9
2018-07-01T14:16:53.294Z,38.7
2018-07-01T14:27:08.318Z,38.5
2018-07-01T14:37:22.505Z,39.5
2018-07-01T14:47:37.705Z,39.2
2018-07-01T14:57:52.665Z,38.9
2018-07-01T15:08:07.999Z,38.5
2018-07-01T15:18:23.865Z,38.4
2018-07-01T15:28:38.497Z,38.9
2018-07-01T15:38:53.927Z,38
2018-07-01T15:49:09.195Z,38.4
2018-07-01T15:59:24.894Z,38.6
2018-07-01T16:09:39.178Z,38
2018-07-01T16:19:53.468Z,37.9
2018-07-01T16:30:07.705Z,37.7
2018-07-01T16:40:22.722Z,37.5
2018-07-01T16:50:37.505Z,37.8
2018-07-01T17:00:52.669Z,37.6
2018-07-01T17:11:06.919Z,37.6
2018-07-01T17:21:23.128Z,37.7
2018-07-01T17:31:38.271Z,37.6
2018-07-01T17:41:53.782Z,37.8
2018-07-01T17:52:09.460Z,38.1
2018-07-01T18:02:25.243Z,39.8
2018-07-01T18:12:39.960Z,40.4
2018-07-01T18:22:54.503Z,41.6
2018-07-01T18:33:08.356Z,41.5
2018-07-01T18:43:22.236Z,41.6
2018-07-01T18:53:37.751Z,41.8
2018-07-01T19:03:52.879Z,42.4
2018-07-01T19:14:08.320Z,42.8
2018-07-01T19:24:22.733Z,43.5
2018-07-01T19:34:37.606Z,44.1
2018-07-01T19:44:52.544Z,45
2018-07-01T19:55:07.479Z,45.7
2018-07-01T20:05:22.060Z,46.5
2018-07-01T20:15:35.955Z,47.5
2018-07-01T20:25:50.496Z,48.7
2018-07-01T20:36:06.179Z,49.5
2018-07-01T20:46:21.343Z,50
2018-07-01T20:56:35.935Z,50.9
2018-07-01T21:06:51.241Z,51.7
2018-07-01T21:17:05.634Z,52.7
2018-07-01T21:27:19.889Z,53.6
2018-07-01T21:37:35.497Z,54.3
2018-07-01T21:47:49.634Z,55.3
2018-07-01T21:58:04.557Z,55.5
2018-07-01T22:08:18.139Z,55.8
2018-07-01T22:18:33.601Z,56.9
2018-07-01T22:28:48.362Z,57.3
2018-07-01T22:39:03.895Z,58.4
2018-07-01T22:49:18.402Z,59.2
2018-07-01T22:59:32.485Z,60
2018-07-01T23:09:47.231Z,60.9
2018-07-01T23:20:01.477Z,62
2018-07-01T23:30:17.471Z,61.4
2018-07-01T23:40:31.436Z,62
2018-07-01T23:50:47.072Z,62.9
